createdAt,value
2022-08-03T00:01:43.066Z,24.83
2022-08-03T00:04:11.121Z,24.80
2022-08-03T00:06:38.292Z,24.85
2022-08-03T00:09:06.014Z,24.89
2022-08-03T00:11:33.418Z,24.80
2022-08-03T00:14:00.611Z,24.80
2022-08-03T00:16:27.557Z,24.72
2022-08-03T00:18:54.488Z,24.53
2022-08-03T00:21:21.385Z,24.60
2022-08-03T00:23:51.921Z,24.64
2022-08-03T00:26:21.024Z,24.69
2022-08-03T00:28:48.985Z,24.64
2022-08-03T00:31:16.159Z,24.64
2022-08-03T00:33:59.533Z,24.64
2022-08-03T00:36:29.965Z,24.61
2022-08-03T00:38:56.873Z,24.54
2022-08-03T00:41:23.765Z,24.49
2022-08-03T00:43:50.901Z,24.45
2022-08-03T00:46:21.640Z,24.49
2022-08-03T00:48:52.342Z,24.42
2022-08-03T00:51:21.766Z,24.42
2022-08-03T00:53:49.844Z,24.35
2022-08-03T00:56:17.771Z,24.28
2022-08-03T00:58:46.223Z,24.20
2022-08-03T01:01:14.126Z,24.20
2022-08-03T01:03:41.411Z,24.12
2022-08-03T01:06:16.051Z,24.11
2022-08-03T01:09:01.790Z,24.14
2022-08-03T01:12:11.056Z,24.14
2022-08-03T01:14:47.178Z,24.08
2022-08-03T01:17:39.979Z,24.10
2022-08-03T01:20:11.894Z,24.12
2022-08-03T01:22:59.710Z,24.07
2022-08-03T01:26:14.632Z,24.05
2022-08-03T01:29:30.546Z,24.04
2022-08-03T01:32:58.490Z,23.95
2022-08-03T01:35:22.881Z,23.88
2022-08-03T01:37:58.826Z,23.91
2022-08-03T01:40:28.521Z,23.95
2022-08-03T01:42:58.096Z,24.05
2022-08-03T01:45:27.728Z,24.17
2022-08-03T01:47:55.632Z,24.17
2022-08-03T01:50:27.987Z,24.14
2022-08-03T01:52:56.830Z,24.12
2022-08-03T01:55:29.290Z,24.12
2022-08-03T01:58:06.006Z,24.13
2022-08-03T02:00:37.857Z,24.03
2022-08-03T02:03:07.307Z,23.91
2022-08-03T02:05:35.044Z,23.81
2022-08-03T02:08:05.115Z,23.83
2022-08-03T02:10:35.128Z,23.74
2022-08-03T02:13:05.982Z,23.66
2022-08-03T02:15:36.522Z,23.63
2022-08-03T02:18:07.977Z,23.64
2022-08-03T02:20:37.676Z,23.44
2022-08-03T02:23:06.542Z,23.43
2022-08-03T02:25:45.047Z,23.50
2022-08-03T02:28:20.016Z,23.42
2022-08-03T02:30:54.440Z,23.33
2022-08-03T02:33:33.317Z,23.22
2022-08-03T02:36:02.797Z,23.24
2022-08-03T02:38:34.731Z,23.17
2022-08-03T02:41:07.099Z,23.21
2022-08-03T02:43:57.643Z,23.24
2022-08-03T02:46:34.163Z,23.22
2022-08-03T02:49:40.790Z,23.23
2022-08-03T02:51:55.023Z,23.28
2022-08-03T02:54:25.002Z,23.24
2022-08-03T02:56:54.442Z,23.29
2022-08-03T02:59:23.615Z,23.34
2022-08-03T03:01:51.808Z,23.26
2022-08-03T03:04:19.265Z,23.25
2022-08-03T03:06:49.129Z,23.21
2022-08-03T03:09:16.977Z,23.17
2022-08-03T03:11:44.974Z,23.05
2022-08-03T03:14:13.416Z,23.10
2022-08-03T03:16:43.777Z,23.09
2022-08-03T03:19:13.313Z,23.19
2022-08-03T03:21:41.024Z,23.18
2022-08-03T03:24:09.568Z,23.04
2022-08-03T03:26:42.099Z,23.07
2022-08-03T03:29:09.786Z,23.08
2022-08-03T03:31:37.211Z,23.03
2022-08-03T03:34:05.085Z,22.98
2022-08-03T03:36:33.627Z,22.99
2022-08-03T03:39:00.511Z,23.00
2022-08-03T03:41:43.651Z,22.98
2022-08-03T03:44:10.598Z,22.92
2022-08-03T03:46:39.106Z,22.88
2022-08-03T03:49:10.144Z,22.94
2022-08-03T03:51:37.106Z,23.01
2022-08-03T03:54:06.917Z,23.08
2022-08-03T03:56:36.312Z,23.13
2022-08-03T03:59:03.361Z,23.11
2022-08-03T04:01:31.172Z,23.02
2022-08-03T04:03:58.845Z,22.98
2022-08-03T04:06:43.950Z,22.93
2022-08-03T04:09:30.130Z,22.88
2022-08-03T04:12:01.023Z,22.86
2022-08-03T04:14:35.418Z,22.79
2022-08-03T04:17:06.197Z,22.75
2022-08-03T04:19:43.820Z,22.78
2022-08-03T04:22:12.774Z,22.77
2022-08-03T04:24:53.714Z,22.81
2022-08-03T04:27:29.121Z,22.85
2022-08-03T04:29:57.897Z,22.92
2022-08-03T04:32:28.617Z,23.28
2022-08-03T04:34:55.988Z,23.50
2022-08-03T04:37:47.885Z,23.68
2022-08-03T04:40:30.517Z,23.89
2022-08-03T04:42:59.144Z,24.10
2022-08-03T04:45:28.993Z,24.31
2022-08-03T04:47:56.412Z,24.52
2022-08-03T04:50:23.819Z,24.68
2022-08-03T04:52:50.690Z,24.74
2022-08-03T04:55:32.895Z,24.93
2022-08-03T04:58:00.803Z,25.08
2022-08-03T05:00:28.515Z,25.36
2022-08-03T05:02:55.999Z,25.51
2022-08-03T05:05:23.477Z,25.82
2022-08-03T05:07:51.249Z,26.00
2022-08-03T05:10:18.179Z,26.21
2022-08-03T05:12:48.056Z,26.36
2022-08-03T05:15:15.146Z,26.44
2022-08-03T05:17:42.038Z,26.70
2022-08-03T05:20:10.043Z,26.80
2022-08-03T05:22:36.936Z,27.01
2022-08-03T05:25:04.538Z,27.54
2022-08-03T05:27:31.406Z,27.75
2022-08-03T05:30:31.685Z,28.20
2022-08-03T05:32:45.817Z,28.14
2022-08-03T05:36:02.062Z,28.65
2022-08-03T05:37:59.560Z,29.26
2022-08-03T05:40:26.843Z,29.48
2022-08-03T05:42:53.819Z,29.86
2022-08-03T05:45:23.178Z,30.29
2022-08-03T05:47:52.280Z,30.65
2022-08-03T05:50:20.077Z,31.10
2022-08-03T05:52:47.346Z,31.37
2022-08-03T05:55:15.001Z,31.89
2022-08-03T05:57:42.414Z,32.54
2022-08-03T06:00:12.575Z,33.22
2022-08-03T06:02:43.077Z,33.68
2022-08-03T06:05:10.786Z,34.15
2022-08-03T06:07:37.946Z,34.75
2022-08-03T06:10:35.998Z,34.90
2022-08-03T06:12:52.947Z,35.75
2022-08-03T06:15:20.573Z,36.22
2022-08-03T06:17:51.723Z,36.69
2022-08-03T06:20:20.575Z,36.97
2022-08-03T06:22:50.703Z,37.33
2022-08-03T06:25:19.318Z,37.93
2022-08-03T06:27:48.559Z,38.64
2022-08-03T06:30:20.982Z,39.39
2022-08-03T06:32:51.675Z,40.18
2022-08-03T06:35:19.633Z,40.66
2022-08-03T06:37:49.157Z,40.91
2022-08-03T06:40:29.590Z,41.47
2022-08-03T06:42:58.781Z,41.65
2022-08-03T06:45:26.255Z,42.65
2022-08-03T06:48:10.183Z,43.46
2022-08-03T06:50:39.665Z,43.85
2022-08-03T06:53:07.533Z,44.13
2022-08-03T06:55:35.473Z,44.54
2022-08-03T06:58:09.196Z,44.84
2022-08-03T07:00:36.083Z,45.05
2022-08-03T07:03:03.099Z,45.23
2022-08-03T07:05:30.679Z,45.29
2022-08-03T07:07:59.172Z,44.90
2022-08-03T07:10:26.181Z,44.95
2022-08-03T07:12:56.511Z,44.62
2022-08-03T07:15:55.583Z,44.11
2022-08-03T07:18:11.176Z,43.32
2022-08-03T07:20:38.105Z,42.75
2022-08-03T07:23:04.989Z,42.08
2022-08-03T07:25:31.879Z,41.88
2022-08-03T07:27:58.894Z,41.49
2022-08-03T07:30:25.874Z,41.30
2022-08-03T07:32:53.417Z,40.89
2022-08-03T07:35:24.737Z,40.40
2022-08-03T07:37:54.453Z,39.84
2022-08-03T07:40:22.807Z,39.49
2022-08-03T07:42:53.397Z,39.29
2022-08-03T07:45:23.282Z,39.02
2022-08-03T07:47:53.883Z,38.51
2022-08-03T07:50:22.051Z,38.06
2022-08-03T07:52:50.447Z,37.66
2022-08-03T07:55:21.982Z,37.09
2022-08-03T07:58:09.726Z,37.02
2022-08-03T08:00:36.832Z,36.79
2022-08-03T08:03:04.743Z,36.81
2022-08-03T08:05:31.910Z,36.65
2022-08-03T08:07:58.876Z,36.45
2022-08-03T08:10:25.878Z,36.53
2022-08-03T08:12:52.915Z,36.52
2022-08-03T08:15:19.861Z,36.31
2022-08-03T08:17:48.391Z,36.36
2022-08-03T08:20:30.727Z,36.00
2022-08-03T08:23:02.011Z,35.73
2022-08-03T08:25:31.821Z,35.52
2022-08-03T08:28:31.637Z,35.39
2022-08-03T08:30:51.336Z,35.31
2022-08-03T08:33:22.560Z,35.29
2022-08-03T08:35:51.953Z,35.19
2022-08-03T08:38:18.962Z,35.30
2022-08-03T08:40:46.230Z,35.36
2022-08-03T08:43:13.199Z,35.07
2022-08-03T08:45:41.690Z,34.80
2022-08-03T08:48:10.765Z,34.97
2022-08-03T08:50:38.889Z,35.00
2022-08-03T08:53:10.745Z,35.41
2022-08-03T08:55:58.730Z,35.48
2022-08-03T08:58:31.254Z,35.49
2022-08-03T09:00:58.376Z,35.13
2022-08-03T09:03:29.250Z,35.13
2022-08-03T09:06:00.151Z,35.35
2022-08-03T09:08:27.075Z,35.33
2022-08-03T09:10:53.974Z,35.13
2022-08-03T09:13:21.348Z,35.02
2022-08-03T09:16:00.856Z,35.43
2022-08-03T09:18:32.784Z,35.82
2022-08-03T09:21:32.170Z,36.06
2022-08-03T09:24:04.112Z,36.06
2022-08-03T09:26:36.152Z,35.52
2022-08-03T09:29:07.213Z,35.85
2022-08-03T09:31:44.357Z,36.21
2022-08-03T09:34:15.151Z,36.40
2022-08-03T09:36:50.148Z,36.16
2022-08-03T09:39:41.678Z,36.24
2022-08-03T09:42:15.729Z,36.45
2022-08-03T09:44:48.424Z,36.60
2022-08-03T09:47:28.509Z,36.70
2022-08-03T09:50:06.010Z,36.50
2022-08-03T09:52:50.257Z,36.45
2022-08-03T09:56:34.811Z,36.62
2022-08-03T09:58:10.418Z,36.58
2022-08-03T10:01:07.858Z,36.61
2022-08-03T10:04:03.427Z,36.39
2022-08-03T10:06:31.671Z,36.11
2022-08-03T10:09:16.429Z,36.07
2022-08-03T10:11:46.700Z,36.16
2022-08-03T10:14:20.115Z,36.14
2022-08-03T10:16:48.301Z,35.97
2022-08-03T10:19:16.253Z,36.04
2022-08-03T10:21:55.783Z,35.81
2022-08-03T10:24:27.351Z,35.89
2022-08-03T10:27:04.443Z,35.96
2022-08-03T10:29:38.691Z,36.19
2022-08-03T10:32:35.810Z,36.25
2022-08-03T10:35:23.317Z,36.25
2022-08-03T10:38:02.583Z,36.38
2022-08-03T10:40:48.075Z,36.28
2022-08-03T10:43:28.949Z,36.21
2022-08-03T10:45:56.751Z,36.38
2022-08-03T10:48:24.322Z,36.40
2022-08-03T10:50:51.974Z,36.00
2022-08-03T10:53:36.606Z,35.80
2022-08-03T10:56:35.399Z,35.63
2022-08-03T10:59:10.640Z,35.51
2022-08-03T11:02:00.231Z,35.68
2022-08-03T11:04:29.547Z,35.81
2022-08-03T11:07:15.899Z,35.94
2022-08-03T11:09:47.533Z,35.93
2022-08-03T11:12:30.597Z,35.39
2022-08-03T11:15:09.189Z,35.53
2022-08-03T11:17:46.925Z,35.41
2022-08-03T11:20:48.445Z,35.53
2022-08-03T11:23:18.186Z,35.25
2022-08-03T11:26:19.037Z,35.34
2022-08-03T11:28:47.576Z,35.42
2022-08-03T11:31:48.183Z,35.43
2022-08-03T11:34:12.852Z,35.31
2022-08-03T11:37:22.114Z,35.08
2022-08-03T11:39:52.921Z,34.99
2022-08-03T11:42:23.010Z,34.94
2022-08-03T11:45:00.027Z,34.89
2022-08-03T11:47:29.327Z,34.77
2022-08-03T11:50:00.138Z,34.83
2022-08-03T11:52:34.887Z,34.48
2022-08-03T11:55:02.343Z,34.23
2022-08-03T11:59:01.814Z,34.45
2022-08-03T12:00:27.053Z,34.41
2022-08-03T12:03:02.320Z,34.37
2022-08-03T12:05:52.715Z,34.48
2022-08-03T12:08:32.027Z,34.49
2022-08-03T12:11:04.401Z,34.42
2022-08-03T12:14:45.382Z,34.42
2022-08-03T12:16:36.713Z,34.43
2022-08-03T12:19:06.781Z,34.40
2022-08-03T12:21:33.804Z,34.17
2022-08-03T12:24:05.434Z,34.09
2022-08-03T12:26:56.781Z,34.29
2022-08-03T12:29:26.315Z,34.26
2022-08-03T12:31:53.257Z,34.18
2022-08-03T12:34:20.209Z,34.11
2022-08-03T12:36:53.289Z,34.18
2022-08-03T12:39:25.594Z,34.17
2022-08-03T12:41:56.939Z,33.76
2022-08-03T12:44:35.525Z,33.85
2022-08-03T12:47:04.296Z,33.97
2022-08-03T12:49:49.809Z,33.96
2022-08-03T12:52:19.254Z,34.02
2022-08-03T12:55:00.017Z,34.05
2022-08-03T12:57:43.195Z,34.20
2022-08-03T13:00:21.674Z,34.21
2022-08-03T13:03:38.829Z,34.31
2022-08-03T13:06:01.348Z,34.33
2022-08-03T13:08:28.225Z,34.13
2022-08-03T13:10:55.207Z,34.12
2022-08-03T13:13:40.896Z,34.27
2022-08-03T13:16:07.774Z,34.36
2022-08-03T13:18:34.591Z,34.22
2022-08-03T13:21:02.271Z,34.26
2022-08-03T13:23:29.269Z,34.21
2022-08-03T13:25:56.344Z,34.13
2022-08-03T13:28:23.448Z,34.16
2022-08-03T13:30:50.406Z,34.17
2022-08-03T13:33:17.690Z,34.17
2022-08-03T13:35:44.526Z,34.22
2022-08-03T13:38:11.506Z,34.07
2022-08-03T13:40:41.842Z,34.18
2022-08-03T13:43:09.098Z,34.35
2022-08-03T13:45:36.249Z,34.32
2022-08-03T13:48:03.133Z,34.18
2022-08-03T13:50:31.288Z,34.20
2022-08-03T13:52:58.665Z,34.16
2022-08-03T13:55:25.813Z,34.10
2022-08-03T13:58:06.102Z,34.16
2022-08-03T14:00:34.704Z,34.19
2022-08-03T14:03:13.384Z,34.22
2022-08-03T14:05:43.479Z,34.18
2022-08-03T14:08:11.174Z,34.28
2022-08-03T14:10:41.803Z,34.30
2022-08-03T14:13:17.800Z,34.27
2022-08-03T14:15:50.038Z,34.40
2022-08-03T14:18:28.804Z,34.58
2022-08-03T14:21:06.655Z,34.54
2022-08-03T14:23:36.344Z,34.53
2022-08-03T14:26:05.083Z,34.57
2022-08-03T14:28:32.021Z,34.60
2022-08-03T14:30:59.435Z,34.53
2022-08-03T14:33:28.283Z,34.62
2022-08-03T14:35:55.904Z,34.59
2022-08-03T14:38:22.978Z,34.51
2022-08-03T14:40:51.326Z,34.47
2022-08-03T14:43:20.070Z,34.48
2022-08-03T14:45:48.686Z,34.65
2022-08-03T14:50:29.015Z,34.55
2022-08-03T14:51:02.502Z,34.57
2022-08-03T14:53:30.006Z,34.51
2022-08-03T14:55:57.094Z,34.53
2022-08-03T14:58:28.141Z,34.64
2022-08-03T15:00:56.442Z,34.61
2022-08-03T15:03:25.191Z,34.67
2022-08-03T15:06:01.215Z,34.59
2022-08-03T15:08:28.064Z,34.54
2022-08-03T15:10:55.490Z,34.45
2022-08-03T15:13:22.882Z,34.60
2022-08-03T15:15:51.603Z,34.57
2022-08-03T15:18:20.030Z,34.57
2022-08-03T15:20:48.981Z,34.53
2022-08-03T15:23:17.264Z,34.54
2022-08-03T15:26:02.191Z,34.44
2022-08-03T15:28:32.825Z,34.55
2022-08-03T15:31:00.519Z,34.70
2022-08-03T15:33:28.065Z,34.70
2022-08-03T15:35:55.066Z,34.65
2022-08-03T15:38:25.816Z,34.69
2022-08-03T15:40:54.496Z,34.80
2022-08-03T15:43:22.927Z,34.75
2022-08-03T15:46:12.688Z,34.68
2022-08-03T15:48:36.943Z,34.46
2022-08-03T15:51:05.339Z,34.47
2022-08-03T15:53:33.532Z,34.49
2022-08-03T15:56:04.208Z,34.46
2022-08-03T15:59:09.685Z,34.54
2022-08-03T16:01:21.269Z,34.67
2022-08-03T16:03:48.273Z,34.66
2022-08-03T16:06:15.245Z,34.63
2022-08-03T16:08:42.151Z,34.52
2022-08-03T16:11:09.151Z,34.58
2022-08-03T16:14:05.552Z,34.60
2022-08-03T16:16:23.278Z,34.64
2022-08-03T16:18:50.115Z,34.50
2022-08-03T16:21:19.494Z,34.55
2022-08-03T16:23:50.033Z,34.53
2022-08-03T16:26:19.118Z,34.55
2022-08-03T16:28:45.996Z,34.53
2022-08-03T16:31:12.887Z,34.43
2022-08-03T16:33:40.133Z,34.48
2022-08-03T16:36:07.098Z,34.36
2022-08-03T16:38:33.933Z,34.27
2022-08-03T16:41:00.809Z,34.28
2022-08-03T16:43:28.280Z,34.28
2022-08-03T16:45:55.231Z,34.21
2022-08-03T16:48:22.122Z,34.29
2022-08-03T16:50:49.180Z,34.22
2022-08-03T16:53:16.832Z,34.15
2022-08-03T16:55:53.391Z,34.10
2022-08-03T16:58:41.861Z,34.07
2022-08-03T17:01:21.704Z,34.04
2022-08-03T17:04:01.369Z,34.00
2022-08-03T17:06:34.982Z,33.97
2022-08-03T17:09:09.836Z,33.84
2022-08-03T17:11:46.915Z,33.85
2022-08-03T17:14:22.083Z,34.00
2022-08-03T17:16:54.073Z,33.94
2022-08-03T17:19:24.471Z,33.88
2022-08-03T17:22:21.283Z,33.88
2022-08-03T17:24:53.887Z,33.81
2022-08-03T17:28:49.513Z,33.76
2022-08-03T17:30:17.474Z,33.73
2022-08-03T17:32:57.203Z,33.73
2022-08-03T17:35:36.514Z,33.87
2022-08-03T17:38:10.518Z,33.75
2022-08-03T17:40:48.097Z,33.68
2022-08-03T17:44:12.871Z,33.60
2022-08-03T17:46:07.085Z,33.54
2022-08-03T17:48:34.375Z,33.53
2022-08-03T17:51:20.369Z,33.37
2022-08-03T17:54:21.484Z,33.34
2022-08-03T17:57:22.552Z,33.36
2022-08-03T18:00:27.995Z,33.35
2022-08-03T18:03:57.684Z,33.33
2022-08-03T18:06:28.723Z,33.32
2022-08-03T18:09:04.934Z,33.31
2022-08-03T18:11:53.664Z,33.26
2022-08-03T18:15:00.700Z,33.17
2022-08-03T18:17:58.082Z,33.07
2022-08-03T18:20:31.200Z,33.09
2022-08-03T18:23:04.839Z,32.99
2022-08-03T18:25:45.162Z,32.95
2022-08-03T18:28:18.870Z,32.88
2022-08-03T18:30:54.277Z,32.86
2022-08-03T18:34:18.689Z,32.85
2022-08-03T18:36:21.857Z,32.76
2022-08-03T18:38:58.423Z,32.64
2022-08-03T18:41:32.961Z,32.56
2022-08-03T18:44:08.867Z,32.47
2022-08-03T18:47:52.037Z,32.47
2022-08-03T18:50:34.181Z,32.41
2022-08-03T18:54:02.790Z,32.35
2022-08-03T18:56:34.688Z,32.28
2022-08-03T18:59:47.116Z,32.20
2022-08-03T19:03:04.504Z,32.13
2022-08-03T19:05:52.999Z,32.09
2022-08-03T19:08:32.350Z,31.97
2022-08-03T19:11:06.077Z,31.93
2022-08-03T19:13:50.220Z,31.88
2022-08-03T19:16:32.272Z,31.90
2022-08-03T19:19:02.051Z,31.78
2022-08-03T19:21:30.251Z,31.74
2022-08-03T19:24:09.771Z,31.71
2022-08-03T19:26:39.593Z,31.62
2022-08-03T19:29:10.826Z,31.53
2022-08-03T19:31:59.071Z,31.45
2022-08-03T19:34:30.413Z,31.38
2022-08-03T19:36:58.784Z,31.40
2022-08-03T19:39:26.081Z,31.41
2022-08-03T19:42:07.967Z,31.36
2022-08-03T19:44:43.571Z,31.27
2022-08-03T19:47:17.406Z,31.17
2022-08-03T19:50:05.379Z,31.14
2022-08-03T19:52:38.359Z,31.10
2022-08-03T19:55:12.251Z,31.07
2022-08-03T19:57:43.499Z,31.04
2022-08-03T20:03:02.385Z,31.01
2022-08-03T20:05:29.649Z,31.01
2022-08-03T20:08:12.165Z,30.98
2022-08-03T20:10:39.057Z,30.97
2022-08-03T20:13:06.692Z,30.94
2022-08-03T20:15:34.970Z,30.97
2022-08-03T20:18:16.747Z,31.00
2022-08-03T20:20:48.527Z,30.96
2022-08-03T20:23:20.119Z,30.92
2022-08-03T20:25:58.814Z,30.87
2022-08-03T20:28:35.567Z,30.79
2022-08-03T20:31:18.777Z,30.49
2022-08-03T20:33:49.068Z,30.33
2022-08-03T20:36:18.698Z,30.22
2022-08-03T20:41:35.326Z,30.06
2022-08-03T20:44:04.380Z,29.96
2022-08-03T20:46:41.688Z,29.94
2022-08-03T20:49:21.253Z,29.83
2022-08-03T20:51:53.196Z,29.71
2022-08-03T20:54:29.705Z,29.76
2022-08-03T20:57:03.990Z,29.61
2022-08-03T20:59:51.244Z,29.63
2022-08-03T21:02:28.788Z,29.69
2022-08-03T21:04:58.824Z,29.66
2022-08-03T21:08:04.161Z,29.75
2022-08-03T21:13:03.270Z,31.08
2022-08-03T21:13:08.183Z,29.64
2022-08-03T21:13:14.252Z,30.16
2022-08-03T21:16:02.622Z,29.52
2022-08-03T21:18:43.700Z,29.39
2022-08-03T21:21:16.615Z,29.34
2022-08-03T21:23:47.974Z,29.28
2022-08-03T21:26:19.070Z,29.23
2022-08-03T21:28:48.791Z,29.20
2022-08-03T21:31:25.485Z,29.21
2022-08-03T21:34:01.244Z,29.17
2022-08-03T21:36:31.355Z,29.12
2022-08-03T21:38:59.639Z,29.11
2022-08-03T21:41:30.545Z,29.11
2022-08-03T21:43:59.072Z,29.07
2022-08-03T21:46:30.705Z,29.05
2022-08-03T21:50:07.080Z,29.03
2022-08-03T21:51:52.263Z,29.01
2022-08-03T21:54:21.117Z,28.99
2022-08-03T21:56:51.161Z,28.96
2022-08-03T21:59:20.498Z,28.95
2022-08-03T22:01:49.179Z,28.92
2022-08-03T22:04:42.671Z,28.87
2022-08-03T22:07:08.433Z,28.88
2022-08-03T22:09:36.391Z,28.85
2022-08-03T22:12:03.821Z,28.81
2022-08-03T22:14:33.277Z,28.80
2022-08-03T22:17:03.560Z,28.78
2022-08-03T22:19:34.149Z,28.81
2022-08-03T22:22:05.932Z,28.82
2022-08-03T22:24:36.531Z,28.79
2022-08-03T22:27:23.221Z,28.81
2022-08-03T22:29:51.684Z,28.82
2022-08-03T22:32:18.596Z,28.83
2022-08-03T22:34:47.737Z,28.81
2022-08-03T22:37:17.752Z,28.69
2022-08-03T22:39:45.863Z,28.68
2022-08-03T22:42:13.952Z,28.77
2022-08-03T22:44:41.080Z,28.70
2022-08-03T22:47:09.819Z,28.60
2022-08-03T22:49:37.871Z,28.59
2022-08-03T22:52:07.380Z,28.55
2022-08-03T22:54:35.875Z,28.50
2022-08-03T22:57:03.960Z,28.46
2022-08-03T22:59:38.831Z,28.43
2022-08-03T23:02:21.185Z,28.45
2022-08-03T23:04:55.646Z,28.33
2022-08-03T23:07:37.519Z,28.32
2022-08-03T23:10:08.411Z,28.29
2022-08-03T23:12:38.288Z,28.28
2022-08-03T23:15:14.484Z,28.33
2022-08-03T23:17:57.540Z,28.35
2022-08-03T23:20:26.913Z,28.33
2022-08-03T23:22:57.740Z,28.34
2022-08-03T23:25:25.523Z,28.16
2022-08-03T23:28:05.067Z,28.18
2022-08-03T23:30:34.902Z,28.22
2022-08-03T23:33:03.071Z,28.19
2022-08-03T23:36:20.205Z,28.16
2022-08-03T23:38:37.380Z,28.14
2022-08-03T23:41:05.203Z,28.12
2022-08-03T23:43:52.127Z,28.05
2022-08-03T23:46:22.452Z,27.98
2022-08-03T23:48:50.263Z,27.89
2022-08-03T23:51:39.966Z,27.76
2022-08-03T23:54:19.099Z,27.62
2022-08-03T23:57:09.212Z,27.53
